createdAt,value
2018-03-06T00:00:56.059Z,71.03
2018-03-06T00:03:23.664Z,69.17
2018-03-06T00:05:51.237Z,67.00
2018-03-06T00:08:18.810Z,80.00
2018-03-06T00:10:46.398Z,72.40
2018-03-06T00:13:13.965Z,67.40
2018-03-06T00:15:41.535Z,75.43
2018-03-06T00:18:09.157Z,80.97
2018-03-06T00:20:36.735Z,82.03
2018-03-06T00:23:04.303Z,69.77
2018-03-06T00:25:31.898Z,72.70
2018-03-06T00:28:00.237Z,78.60
2018-03-06T00:30:27.810Z,76.53
2018-03-06T00:32:55.415Z,73.30
2018-03-06T00:35:22.990Z,74.50
2018-03-06T00:37:50.563Z,77.27
2018-03-06T00:40:18.168Z,72.50
2018-03-06T00:42:45.738Z,65.50
2018-03-06T00:45:14.074Z,59.27
2018-03-06T00:47:41.676Z,59.70
2018-03-06T00:50:10.013Z,61.50
2018-03-06T00:52:37.584Z,53.83
2018-03-06T00:55:05.183Z,54.57
2018-03-06T00:57:33.524Z,56.97
2018-03-06T01:00:01.088Z,53.93
2018-03-06T01:02:28.694Z,54.40
2018-03-06T01:04:56.286Z,59.17
2018-03-06T01:07:23.863Z,54.23
2018-03-06T01:09:51.454Z,59.07
2018-03-06T01:12:19.795Z,53.17
2018-03-06T01:14:47.362Z,49.97
2018-03-06T01:17:14.962Z,57.63
2018-03-06T01:19:43.297Z,53.10
2018-03-06T01:22:11.633Z,54.70
2018-03-06T01:24:40.014Z,60.70
2018-03-06T01:27:07.607Z,61.00
2018-03-06T01:29:35.166Z,68.37
2018-03-06T01:32:02.778Z,59.33
2018-03-06T01:34:31.107Z,70.83
2018-03-06T01:36:58.674Z,71.60
2018-03-06T01:39:26.270Z,68.53
2018-03-06T01:41:54.622Z,74.83
2018-03-06T01:44:22.199Z,70.13
2018-03-06T01:46:49.796Z,78.97
2018-03-06T01:49:17.374Z,78.90
2018-03-06T01:51:57.814Z,77.57
2018-03-06T01:54:25.383Z,80.50
2018-03-06T01:56:52.943Z,81.63
2018-03-06T01:59:20.544Z,77.27
2018-03-06T02:01:48.111Z,83.00
2018-03-06T02:04:15.672Z,79.77
2018-03-06T02:06:43.259Z,76.70
2018-03-06T02:09:10.826Z,79.57
2018-03-06T02:11:39.163Z,72.17
2018-03-06T02:14:06.760Z,75.87
2018-03-06T02:16:35.105Z,82.67
2018-03-06T02:19:02.669Z,80.30
2018-03-06T02:21:30.309Z,74.97
2018-03-06T02:23:58.614Z,82.80
2018-03-06T02:26:26.182Z,81.13
2018-03-06T02:28:56.247Z,78.53
2018-03-06T02:31:23.813Z,72.63
2018-03-06T02:33:51.407Z,69.57
2018-03-06T02:36:18.977Z,70.97
2018-03-06T02:38:46.552Z,69.40
2018-03-06T02:41:14.906Z,73.90
2018-03-06T02:43:42.459Z,80.57
2018-03-06T02:46:10.049Z,72.50
2018-03-06T02:48:37.614Z,71.03
2018-03-06T02:51:05.214Z,74.90
2018-03-06T02:53:32.774Z,75.23
2018-03-06T02:56:00.355Z,74.83
2018-03-06T02:58:27.961Z,78.33
2018-03-06T03:00:56.298Z,85.37
2018-03-06T03:03:23.872Z,71.60
2018-03-06T03:05:51.487Z,82.57
2018-03-06T03:08:19.046Z,87.33
2018-03-06T03:10:46.628Z,72.57
2018-03-06T03:13:14.226Z,95.33
2018-03-06T03:15:41.799Z,79.57
2018-03-06T03:18:09.376Z,72.17
2018-03-06T03:20:36.963Z,77.97
2018-03-06T03:23:04.549Z,79.77
2018-03-06T03:25:32.119Z,71.60
2018-03-06T03:27:59.726Z,74.90
2018-03-06T03:30:28.270Z,67.73
2018-03-06T03:32:55.846Z,72.47
2018-03-06T03:35:23.446Z,68.80
2018-03-06T03:37:51.029Z,71.87
2018-03-06T03:40:18.609Z,73.33
2018-03-06T03:42:46.207Z,68.70
2018-03-06T03:45:14.563Z,65.07
2018-03-06T03:47:42.143Z,70.17
2018-03-06T03:50:10.504Z,68.83
2018-03-06T03:52:38.083Z,74.53
2018-03-06T03:55:06.431Z,68.90
2018-03-06T03:57:34.045Z,63.00
2018-03-06T04:00:01.612Z,55.70
2018-03-06T04:02:29.187Z,59.67
2018-03-06T04:04:56.786Z,60.20
2018-03-06T04:07:24.370Z,62.33
2018-03-06T04:09:52.705Z,67.03
2018-03-06T04:12:20.318Z,61.37
2018-03-06T04:14:48.644Z,56.93
2018-03-06T04:17:16.245Z,60.90
2018-03-06T04:19:44.590Z,61.80
2018-03-06T04:22:12.162Z,60.77
2018-03-06T04:24:39.754Z,58.53
2018-03-06T04:27:07.329Z,63.97
2018-03-06T04:29:34.914Z,56.75
2018-03-06T04:32:02.508Z,53.30
2018-03-06T04:34:30.088Z,53.90
2018-03-06T04:36:58.448Z,60.97
2018-03-06T04:39:26.021Z,59.27
2018-03-06T04:41:53.585Z,63.97
2018-03-06T04:44:21.180Z,60.37
2018-03-06T04:46:48.760Z,59.42
2018-03-06T04:49:16.363Z,57.63
2018-03-06T04:51:44.736Z,59.47
2018-03-06T04:54:12.302Z,59.23
2018-03-06T04:56:39.890Z,61.10
2018-03-06T04:59:07.471Z,67.90
2018-03-06T05:01:35.078Z,67.40
2018-03-06T05:04:02.687Z,66.55
2018-03-06T05:06:30.258Z,68.17
2018-03-06T05:08:57.869Z,66.43
2018-03-06T05:11:26.212Z,70.17
2018-03-06T05:13:53.814Z,71.43
2018-03-06T05:16:22.164Z,67.37
2018-03-06T05:18:49.952Z,79.27
2018-03-06T05:21:18.266Z,87.70
2018-03-06T05:23:45.844Z,105.17
2018-03-06T05:26:13.459Z,104.47
2018-03-06T05:28:41.804Z,107.63
2018-03-06T05:31:09.369Z,101.00
2018-03-06T05:33:36.984Z,104.32
2018-03-06T05:36:04.577Z,94.33
2018-03-06T05:38:32.165Z,97.23
2018-03-06T05:40:59.791Z,89.60
2018-03-06T05:43:27.361Z,86.20
2018-03-06T05:45:54.947Z,77.00
2018-03-06T05:48:22.590Z,87.27
2018-03-06T05:50:50.188Z,83.77
2018-03-06T05:53:18.573Z,92.22
2018-03-06T05:55:46.922Z,85.60
2018-03-06T05:58:14.526Z,84.53
2018-03-06T06:00:42.147Z,90.60
2018-03-06T06:03:09.739Z,93.70
2018-03-06T06:05:38.107Z,78.15
2018-03-06T06:08:06.447Z,85.57
2018-03-06T06:10:34.010Z,86.03
2018-03-06T06:13:01.618Z,79.80
2018-03-06T06:15:29.201Z,82.70
2018-03-06T06:17:56.796Z,91.10
2018-03-06T06:20:24.474Z,90.13
2018-03-06T06:22:52.962Z,89.40
2018-03-06T06:25:20.520Z,89.97
2018-03-06T06:27:48.095Z,91.63
2018-03-06T06:30:15.714Z,96.93
2018-03-06T06:32:43.279Z,105.17
2018-03-06T06:35:10.864Z,96.43
2018-03-06T06:37:38.419Z,96.47
2018-03-06T06:40:06.009Z,101.90
2018-03-06T06:42:33.632Z,98.33
2018-03-06T06:45:01.197Z,105.00
2018-03-06T06:47:28.779Z,91.57
2018-03-06T06:49:56.354Z,107.73
2018-03-06T06:52:23.959Z,106.87
2018-03-06T06:54:51.535Z,110.27
2018-03-06T06:57:19.887Z,109.17
2018-03-06T06:59:47.524Z,110.00
2018-03-06T07:02:15.852Z,96.23
2018-03-06T07:04:43.411Z,105.80
2018-03-06T07:07:10.982Z,110.77
2018-03-06T07:09:38.547Z,100.37
2018-03-06T07:12:06.545Z,108.37
2018-03-06T07:14:34.875Z,113.93
2018-03-06T07:17:02.513Z,108.70
2018-03-06T07:19:30.084Z,93.20
2018-03-06T07:21:58.743Z,98.03
2018-03-06T07:24:27.085Z,115.50
2018-03-06T07:26:54.637Z,103.07
2018-03-06T07:29:22.190Z,107.80
2018-03-06T07:31:49.769Z,104.13
2018-03-06T07:34:17.332Z,100.00
2018-03-06T07:36:44.928Z,119.17
2018-03-06T07:39:12.498Z,106.13
2018-03-06T07:41:40.043Z,110.33
2018-03-06T07:44:07.621Z,112.10
2018-03-06T07:46:35.169Z,111.03
2018-03-06T07:49:03.510Z,111.37
2018-03-06T07:51:31.062Z,116.10
2018-03-06T07:53:58.626Z,112.57
2018-03-06T07:56:26.198Z,115.90
2018-03-06T07:58:53.754Z,111.80
2018-03-06T08:01:21.324Z,123.50
2018-03-06T08:03:48.903Z,127.60
2018-03-06T08:06:17.288Z,119.27
2018-03-06T08:08:45.627Z,121.63
2018-03-06T08:11:13.175Z,125.47
2018-03-06T08:13:40.743Z,119.77
2018-03-06T08:16:08.298Z,116.60
2018-03-06T08:18:35.856Z,121.07
2018-03-06T08:21:03.432Z,107.30
2018-03-06T08:23:30.990Z,113.80
2018-03-06T08:25:58.554Z,116.33
2018-03-06T08:28:26.107Z,108.07
2018-03-06T08:30:53.663Z,114.57
2018-03-06T08:33:21.230Z,115.97
2018-03-06T08:35:48.831Z,116.57
2018-03-06T08:38:17.188Z,120.83
2018-03-06T08:40:44.740Z,119.30
2018-03-06T08:43:12.296Z,115.63
2018-03-06T08:45:39.890Z,117.17
2018-03-06T08:48:08.248Z,117.40
2018-03-06T08:50:35.818Z,118.60
2018-03-06T08:53:04.131Z,121.33
2018-03-06T08:55:31.686Z,120.97
2018-03-06T08:57:59.259Z,109.83
2018-03-06T09:00:26.828Z,111.13
2018-03-06T09:02:54.402Z,115.33
2018-03-06T09:05:21.953Z,106.50
2018-03-06T09:07:49.511Z,111.67
2018-03-06T09:10:17.083Z,115.33
2018-03-06T09:12:44.638Z,107.60
2018-03-06T09:15:12.238Z,116.70
2018-03-06T09:17:39.800Z,117.70
2018-03-06T09:20:08.126Z,112.93
2018-03-06T09:22:35.694Z,104.50
2018-03-06T09:25:04.169Z,112.63
2018-03-06T09:27:31.751Z,116.27
2018-03-06T09:29:59.311Z,117.33
2018-03-06T09:32:27.647Z,101.97
2018-03-06T09:34:55.236Z,104.43
2018-03-06T09:37:22.789Z,106.23
2018-03-06T09:39:50.389Z,113.50
2018-03-06T09:42:17.965Z,105.77
2018-03-06T09:44:45.542Z,98.83
2018-03-06T09:47:13.876Z,104.50
2018-03-06T09:49:41.432Z,101.33
2018-03-06T09:52:08.998Z,99.30
2018-03-06T09:54:36.563Z,106.20
2018-03-06T09:57:04.117Z,99.10
2018-03-06T09:59:32.445Z,99.37
2018-03-06T10:01:59.994Z,102.93
2018-03-06T10:04:28.330Z,97.93
2018-03-06T10:06:55.882Z,97.40
2018-03-06T10:09:23.440Z,93.20
2018-03-06T10:11:51.003Z,95.63
2018-03-06T10:14:18.552Z,102.60
2018-03-06T10:16:46.125Z,101.27
2018-03-06T10:19:13.683Z,91.70
2018-03-06T10:21:41.223Z,105.73
2018-03-06T10:24:08.790Z,92.53
2018-03-06T10:26:36.335Z,88.57
2018-03-06T10:29:03.908Z,107.90
2018-03-06T10:31:31.458Z,96.37
2018-03-06T10:33:59.055Z,96.40
2018-03-06T10:36:26.639Z,95.70
2018-03-06T10:38:54.965Z,92.70
2018-03-06T10:41:22.530Z,93.23
2018-03-06T10:43:50.077Z,94.90
2018-03-06T10:46:17.636Z,97.10
2018-03-06T10:48:45.199Z,92.67
2018-03-06T10:51:12.743Z,101.47
2018-03-06T10:53:40.318Z,90.60
2018-03-06T10:56:07.885Z,100.70
2018-03-06T10:58:35.431Z,100.60
2018-03-06T11:01:02.992Z,102.40
2018-03-06T11:03:30.549Z,96.20
2018-03-06T11:05:58.134Z,96.50
2018-03-06T11:08:25.694Z,100.60
2018-03-06T11:10:53.232Z,88.17
2018-03-06T11:13:21.975Z,93.90
2018-03-06T11:15:49.519Z,92.43
2018-03-06T11:18:17.091Z,97.77
2018-03-06T11:20:44.636Z,90.23
2018-03-06T11:23:17.982Z,87.47
2018-03-06T11:25:46.292Z,87.57
2018-03-06T11:28:13.840Z,81.87
2018-03-06T11:30:41.402Z,87.50
2018-03-06T11:33:08.944Z,89.37
2018-03-06T11:35:36.519Z,96.90
2018-03-06T11:38:04.066Z,82.37
2018-03-06T11:40:31.610Z,83.40
2018-03-06T11:42:59.947Z,81.00
2018-03-06T11:45:27.498Z,79.77
2018-03-06T11:47:55.070Z,91.83
2018-03-06T11:50:22.623Z,89.67
2018-03-06T11:52:50.180Z,84.43
2018-03-06T11:55:17.735Z,97.87
2018-03-06T11:57:45.274Z,79.57
2018-03-06T12:00:12.855Z,77.17
2018-03-06T12:02:40.419Z,75.50
2018-03-06T12:05:07.986Z,78.73
2018-03-06T12:07:36.353Z,72.23
2018-03-06T12:10:07.343Z,74.67
2018-03-06T12:12:34.903Z,74.50
2018-03-06T12:15:05.397Z,76.00
2018-03-06T12:17:32.939Z,78.07
2018-03-06T12:20:00.612Z,79.37
2018-03-06T12:22:28.210Z,72.63
2018-03-06T12:24:56.566Z,79.07
2018-03-06T12:27:24.212Z,77.40
2018-03-06T12:29:51.758Z,67.90
2018-03-06T12:32:19.316Z,73.10
2018-03-06T12:34:46.866Z,71.53
2018-03-06T12:37:14.436Z,67.07
2018-03-06T12:39:41.974Z,70.23
2018-03-06T12:42:09.523Z,74.83
2018-03-06T12:44:37.952Z,73.53
2018-03-06T12:47:05.498Z,72.37
2018-03-06T12:49:41.398Z,67.27
2018-03-06T12:52:08.942Z,69.40
2018-03-06T12:54:36.498Z,63.53
2018-03-06T12:57:04.073Z,64.13
2018-03-06T12:59:31.612Z,71.27
2018-03-06T13:01:59.187Z,63.33
2018-03-06T13:04:26.739Z,61.40
2018-03-06T13:06:54.289Z,71.50
2018-03-06T13:09:21.852Z,67.70
2018-03-06T13:11:49.389Z,66.87
2018-03-06T13:14:16.956Z,66.33
2018-03-06T13:16:44.490Z,66.40
2018-03-06T13:19:12.793Z,61.87
2018-03-06T13:21:40.357Z,70.17
2018-03-06T13:24:07.906Z,66.87
2018-03-06T13:26:35.490Z,65.00
2018-03-06T13:29:03.037Z,67.93
2018-03-06T13:31:30.575Z,75.30
2018-03-06T13:33:58.936Z,66.37
2018-03-06T13:36:26.467Z,62.37
2018-03-06T13:38:54.048Z,61.07
2018-03-06T13:41:22.661Z,65.93
2018-03-06T13:43:50.452Z,61.53
2018-03-06T13:46:18.015Z,71.60
2018-03-06T13:48:45.572Z,65.27
2018-03-06T13:51:13.151Z,69.00
2018-03-06T13:53:40.706Z,64.90
2018-03-06T13:56:14.879Z,68.33
2018-03-06T13:58:50.372Z,68.07
2018-03-06T14:01:17.967Z,73.27
2018-03-06T14:03:45.508Z,72.17
2018-03-06T14:06:13.043Z,63.30
2018-03-06T14:08:40.620Z,73.13
2018-03-06T14:11:08.161Z,70.10
2018-03-06T14:13:35.708Z,68.57
2018-03-06T14:16:04.231Z,69.70
2018-03-06T14:18:31.780Z,72.93
2018-03-06T14:20:59.327Z,68.17
2018-03-06T14:23:26.928Z,68.27
2018-03-06T14:25:55.260Z,83.23
2018-03-06T14:28:22.823Z,68.90
2018-03-06T14:30:50.470Z,66.07
2018-03-06T14:33:18.011Z,64.10
2018-03-06T14:35:46.339Z,65.17
2018-03-06T14:38:13.904Z,66.17
2018-03-06T14:40:41.463Z,62.77
2018-03-06T14:43:09.047Z,72.37
2018-03-06T14:45:36.624Z,61.70
2018-03-06T14:48:04.930Z,82.73
2018-03-06T14:50:32.471Z,64.13
2018-03-06T14:53:00.795Z,62.37
2018-03-06T14:55:28.340Z,60.93
2018-03-06T14:57:55.920Z,57.33
2018-03-06T15:00:23.469Z,54.17
2018-03-06T15:02:51.015Z,53.83
2018-03-06T15:05:18.588Z,52.10
2018-03-06T15:07:46.470Z,51.53
2018-03-06T15:10:14.046Z,46.90
2018-03-06T15:12:41.588Z,48.07
2018-03-06T15:15:09.134Z,44.03
2018-03-06T15:17:36.694Z,45.47
2018-03-06T15:20:04.242Z,44.20
2018-03-06T15:22:31.814Z,40.87
2018-03-06T15:24:59.359Z,38.53
2018-03-06T15:27:26.903Z,42.03
2018-03-06T15:29:54.474Z,41.27
2018-03-06T15:32:22.053Z,39.37
2018-03-06T15:34:49.634Z,45.00
2018-03-06T15:37:17.178Z,43.10
2018-03-06T15:39:44.750Z,43.97
2018-03-06T15:42:12.340Z,50.63
2018-03-06T15:44:39.886Z,45.60
2018-03-06T15:47:07.457Z,51.07
2018-03-06T15:49:35.036Z,46.13
2018-03-06T15:52:03.350Z,46.33
2018-03-06T15:54:30.919Z,47.97
2018-03-06T15:56:58.477Z,48.90
2018-03-06T15:59:26.043Z,44.33
2018-03-06T16:01:53.583Z,54.53
2018-03-06T16:04:21.127Z,52.37
2018-03-06T16:06:49.463Z,44.70
2018-03-06T16:09:17.034Z,48.30
2018-03-06T16:11:44.594Z,48.53
2018-03-06T16:14:12.134Z,44.40
2018-03-06T16:16:43.431Z,41.50
2018-03-06T16:19:11.769Z,44.17
2018-03-06T16:21:39.321Z,48.67
2018-03-06T16:24:06.917Z,44.53
2018-03-06T16:26:35.260Z,43.90
2018-03-06T16:29:02.819Z,48.40
2018-03-06T16:31:30.408Z,47.10
2018-03-06T16:33:57.966Z,46.33
2018-03-06T16:36:25.534Z,47.70
2018-03-06T16:38:53.108Z,49.10
2018-03-06T16:41:20.683Z,47.73
2018-03-06T16:43:48.264Z,53.00
2018-03-06T16:46:17.760Z,58.67
2018-03-06T16:48:45.382Z,47.47
2018-03-06T16:51:12.923Z,49.67
2018-03-06T16:53:40.486Z,63.30
2018-03-06T16:56:08.055Z,49.07
2018-03-06T16:58:35.602Z,46.00
2018-03-06T17:01:06.205Z,46.73
2018-03-06T17:03:33.749Z,48.83
2018-03-06T17:06:01.293Z,49.43
2018-03-06T17:08:29.627Z,55.43
2018-03-06T17:10:58.014Z,48.70
2018-03-06T17:16:21.372Z,55.83
2018-03-06T17:18:48.959Z,51.13
2018-03-06T17:21:21.945Z,54.10
2018-03-06T17:23:50.324Z,50.03
2018-03-06T17:26:18.786Z,56.03
2018-03-06T17:28:46.350Z,59.90
2018-03-06T17:31:13.942Z,47.10
2018-03-06T17:33:41.484Z,60.10
2018-03-06T17:36:09.066Z,60.77
2018-03-06T17:38:36.641Z,58.67
2018-03-06T17:41:13.035Z,48.83
2018-03-06T17:43:40.611Z,55.93
2018-03-06T17:46:08.156Z,50.90
2018-03-06T17:48:35.727Z,56.73
2018-03-06T17:51:03.275Z,55.43
2018-03-06T17:53:30.846Z,57.93
2018-03-06T17:55:58.403Z,52.70
2018-03-06T17:58:25.946Z,57.47
2018-03-06T18:01:01.313Z,64.73
2018-03-06T18:03:28.869Z,58.37
2018-03-06T18:05:56.459Z,59.00
2018-03-06T18:08:24.020Z,59.50
2018-03-06T18:10:51.592Z,62.00
2018-03-06T18:13:19.196Z,53.37
2018-03-06T18:15:46.762Z,58.57
2018-03-06T18:18:15.277Z,52.23
2018-03-06T18:20:42.833Z,57.13
2018-03-06T18:23:10.445Z,57.40
2018-03-06T18:25:38.783Z,56.47
2018-03-06T18:28:06.398Z,52.73
2018-03-06T18:30:33.978Z,61.93
2018-03-06T18:33:03.508Z,53.53
2018-03-06T18:35:31.095Z,61.87
2018-03-06T18:37:58.674Z,57.30
2018-03-06T18:40:26.248Z,56.37
2018-03-06T18:42:54.777Z,51.03
2018-03-06T18:45:22.352Z,66.53
2018-03-06T18:47:49.951Z,62.33
2018-03-06T18:53:17.078Z,58.30
2018-03-06T18:55:44.654Z,66.43
2018-03-06T18:58:12.202Z,61.00
2018-03-06T19:01:02.445Z,71.33
2018-03-06T19:03:41.832Z,68.17
2018-03-06T19:06:21.395Z,53.30
2018-03-06T19:08:49.730Z,51.93
2018-03-06T19:11:17.324Z,56.70
2018-03-06T19:13:44.901Z,60.27
2018-03-06T19:16:13.253Z,53.20
2018-03-06T19:18:40.914Z,55.53
2018-03-06T19:21:08.475Z,52.80
2018-03-06T19:23:36.017Z,56.27
2018-03-06T19:26:05.737Z,58.90
2018-03-06T19:28:33.676Z,50.57
2018-03-06T19:31:01.332Z,50.83
2018-03-06T19:33:28.929Z,49.37
2018-03-06T19:35:57.193Z,49.90
2018-03-06T19:38:24.763Z,48.60
2018-03-06T19:40:52.343Z,50.57
2018-03-06T19:43:20.711Z,51.73
2018-03-06T19:45:48.267Z,49.10
2018-03-06T19:48:15.859Z,48.73
2018-03-06T19:50:43.435Z,46.50
2018-03-06T19:53:11.043Z,46.97
2018-03-06T19:55:56.367Z,44.50
2018-03-06T19:58:27.281Z,42.60
2018-03-06T20:00:54.851Z,43.07
2018-03-06T20:03:24.223Z,41.93
2018-03-06T20:05:51.782Z,41.47
2018-03-06T20:08:19.407Z,38.83
2018-03-06T20:10:47.008Z,41.27
2018-03-06T20:13:14.563Z,37.43
2018-03-06T20:15:42.161Z,44.87
2018-03-06T20:18:11.500Z,36.27
2018-03-06T20:20:39.086Z,42.10
2018-03-06T20:23:07.410Z,36.67
2018-03-06T20:25:41.471Z,37.73
2018-03-06T20:28:09.012Z,41.17
2018-03-06T20:30:57.406Z,45.20
2018-03-06T20:33:24.958Z,42.40
2018-03-06T20:35:52.527Z,44.80
2018-03-06T20:38:25.759Z,41.23
2018-03-06T20:40:53.390Z,47.17
2018-03-06T20:43:20.979Z,42.57
2018-03-06T20:45:54.223Z,42.67
2018-03-06T20:48:29.730Z,40.47
2018-03-06T20:50:57.275Z,44.90
2018-03-06T20:53:31.333Z,39.40
2018-03-06T20:55:58.876Z,40.30
2018-03-06T20:58:26.448Z,43.17
2018-03-06T21:00:54.048Z,43.40
2018-03-06T21:03:21.582Z,44.60
2018-03-06T21:05:49.173Z,49.93
2018-03-06T21:08:16.706Z,51.67
2018-03-06T21:10:44.250Z,50.50
2018-03-06T21:13:11.858Z,52.13
2018-03-06T21:15:39.414Z,48.83
2018-03-06T21:18:07.011Z,46.27
2018-03-06T21:20:34.564Z,47.47
2018-03-06T21:23:02.106Z,48.37
2018-03-06T21:25:30.836Z,51.67
2018-03-06T21:27:58.382Z,48.90
2018-03-06T21:30:26.899Z,52.67
2018-03-06T21:32:54.459Z,49.70
2018-03-06T21:35:21.998Z,47.23
2018-03-06T21:37:49.578Z,49.23
2018-03-06T21:40:17.173Z,52.17
2018-03-06T21:42:45.528Z,46.13
2018-03-06T21:45:13.536Z,53.20
2018-03-06T21:47:41.251Z,49.07
2018-03-06T21:50:12.405Z,60.50
2018-03-06T21:52:39.962Z,51.07
2018-03-06T21:55:07.532Z,48.03
2018-03-06T21:57:35.065Z,55.23
2018-03-06T22:00:03.651Z,46.37
2018-03-06T22:02:31.207Z,49.90
2018-03-06T22:04:58.765Z,46.87
2018-03-06T22:07:27.058Z,46.67
2018-03-06T22:09:54.587Z,47.37
2018-03-06T22:12:22.135Z,49.97
2018-03-06T22:14:49.707Z,47.93
2018-03-06T22:17:17.246Z,48.70
2018-03-06T22:19:45.588Z,51.13
2018-03-06T22:22:13.151Z,45.77
2018-03-06T22:24:40.703Z,46.43
2018-03-06T22:27:08.271Z,51.23
2018-03-06T22:29:43.649Z,46.13
2018-03-06T22:32:11.991Z,46.90
2018-03-06T22:34:39.562Z,44.80
2018-03-06T22:37:07.126Z,52.03
2018-03-06T22:39:34.708Z,45.13
2018-03-06T22:42:02.268Z,49.30
2018-03-06T22:44:30.615Z,52.03
2018-03-06T22:46:58.170Z,49.10
2018-03-06T22:49:25.722Z,40.83
2018-03-06T22:51:53.292Z,42.97
2018-03-06T22:54:20.866Z,45.63
2018-03-06T22:56:48.442Z,42.43
2018-03-06T22:59:16.018Z,45.40
2018-03-06T23:01:44.355Z,42.27
2018-03-06T23:04:11.924Z,40.47
2018-03-06T23:06:39.464Z,37.43
2018-03-06T23:09:07.050Z,37.07
2018-03-06T23:11:34.604Z,43.27
2018-03-06T23:14:02.143Z,38.73
2018-03-06T23:16:29.732Z,36.37
2018-03-06T23:18:57.271Z,35.07
2018-03-06T23:21:24.842Z,34.87
2018-03-06T23:23:52.401Z,38.07
2018-03-06T23:26:19.950Z,38.50
2018-03-06T23:28:47.523Z,39.37
2018-03-06T23:31:15.076Z,40.13
2018-03-06T23:33:51.111Z,39.63
2018-03-06T23:36:18.668Z,37.73
2018-03-06T23:38:46.228Z,39.07
2018-03-06T23:41:13.851Z,44.80
2018-03-06T23:43:41.424Z,39.57
2018-03-06T23:46:09.037Z,45.03
2018-03-06T23:48:36.654Z,41.33
2018-03-06T23:51:04.239Z,43.93
2018-03-06T23:53:31.822Z,42.00
2018-03-06T23:55:59.375Z,49.33
2018-03-06T23:58:26.953Z,45.03
